Time;durP1;ratioP1;P1;durP2;ratioP2;P2;SDS_P1;SDS_P2;PMS_P1;PMS_P2;Temp;Humidity;BMP_temperature;BMP_pressure;BME280_temperature;BME280_humidity;BME280_pressure;Samples;Min_cycle;Max_cycle;Signal;HPM_P1;HPM_P2
2023/04/22 00:00:50;;;;;;;7.67;4.30;;;12.50;1.00;;;;;;5073774;28;20259;-86
2023/04/22 00:03:16;;;;;;;5.27;4.77;;;12.40;1.00;;;;;;5073766;28;20240;-86
2023/04/22 00:05:43;;;;;;;5.90;4.70;;;12.40;1.00;;;;;;5091921;28;20176;-86
2023/04/22 00:08:09;;;;;;;5.07;4.50;;;12.40;1.00;;;;;;5091818;28;20192;-86
2023/04/22 00:10:34;;;;;;;5.37;4.63;;;12.30;1.00;;;;;;5091502;28;20280;-86
2023/04/22 00:13:00;;;;;;;5.37;4.30;;;12.20;99.90;;;;;;5073440;28;20161;-87
2023/04/22 00:15:26;;;;;;;4.90;4.40;;;12.10;99.90;;;;;;5073766;28;20249;-86
2023/04/22 00:17:52;;;;;;;4.67;4.20;;;12.10;1.00;;;;;;5073604;28;20242;-86
2023/04/22 00:20:20;;;;;;;4.70;3.60;;;12.00;1.00;;;;;;5091331;28;20712;-86
2023/04/22 00:22:46;;;;;;;4.60;4.20;;;12.00;99.90;;;;;;5073468;28;20271;-86
2023/04/22 00:25:12;;;;;;;4.83;4.20;;;12.00;99.90;;;;;;5092034;28;20255;-86
2023/04/22 00:27:37;;;;;;;4.60;3.90;;;11.90;1.00;;;;;;5073847;28;20176;-86
2023/04/22 00:30:05;;;;;;;4.70;4.30;;;11.90;1.00;;;;;;5077046;28;20666;-86
2023/04/22 00:32:30;;;;;;;4.50;4.10;;;11.80;1.00;;;;;;5095030;28;20585;-86
2023/04/22 00:34:56;;;;;;;6.23;4.30;;;11.90;99.90;;;;;;5076900;28;20208;-86
2023/04/22 00:37:23;;;;;;;7.73;4.47;;;11.90;99.90;;;;;;5095051;28;20775;-85
2023/04/22 00:39:48;;;;;;;5.10;4.60;;;11.90;1.00;;;;;;5076928;28;20180;-86
2023/04/22 00:42:15;;;;;;;5.33;4.63;;;11.80;1.00;;;;;;5094970;28;20176;-86
2023/04/22 00:44:41;;;;;;;4.70;4.20;;;11.80;1.00;;;;;;5076918;28;20559;-86
2023/04/22 00:47:08;;;;;;;5.10;4.60;;;11.80;99.90;;;;;;5076747;28;20646;-86
2023/04/22 00:49:35;;;;;;;5.90;4.50;;;11.80;99.90;;;;;;5076621;28;20208;-85
2023/04/22 00:52:01;;;;;;;5.80;4.87;;;11.80;1.00;;;;;;5076521;28;20179;-86
2023/04/22 00:54:27;;;;;;;5.47;4.30;;;11.70;99.90;;;;;;5094607;28;20178;-86
2023/04/22 00:56:54;;;;;;;6.00;4.63;;;11.70;1.00;;;;;;5094921;28;20275;-86
2023/04/22 00:59:21;;;;;;;5.03;4.53;;;11.70;99.90;;;;;;5094652;28;20207;-86
2023/04/22 01:01:47;;;;;;;5.50;4.40;;;11.70;99.90;;;;;;5076182;28;20234;-86
2023/04/22 01:04:14;;;;;;;5.53;4.30;;;11.80;99.90;;;;;;5094813;28;20183;-86
2023/04/22 01:06:41;;;;;;;5.37;4.70;;;11.70;99.90;;;;;;5094428;28;20180;-85
2023/04/22 01:09:07;;;;;;;5.10;4.17;;;11.70;99.90;;;;;;5075997;28;20196;-85
2023/04/22 01:11:35;;;;;;;7.10;4.43;;;11.70;99.90;;;;;;5094283;28;20175;-86
2023/04/22 01:14:01;;;;;;;4.77;4.30;;;11.60;99.90;;;;;;5076448;28;20173;-86
2023/04/22 01:16:27;;;;;;;6.63;4.30;;;11.50;1.00;;;;;;5076327;28;20203;-85
2023/04/22 01:18:53;;;;;;;6.50;4.50;;;11.50;99.90;;;;;;5076042;28;20237;-86
2023/04/22 01:21:19;;;;;;;6.50;4.73;;;11.50;1.00;;;;;;5075877;28;20167;-86
2023/04/22 01:23:45;;;;;;;4.30;3.90;;;11.50;99.90;;;;;;5076181;28;20221;-86
2023/04/22 01:26:11;;;;;;;6.03;4.57;;;11.40;1.00;;;;;;5094117;28;20171;-86
2023/04/22 01:28:36;;;;;;;4.50;4.10;;;11.40;99.90;;;;;;5075980;28;20188;-86
2023/04/22 01:31:03;;;;;;;4.73;4.23;;;11.40;99.90;;;;;;5075591;28;20682;-86
2023/04/22 01:33:29;;;;;;;4.80;4.37;;;11.30;1.00;;;;;;5075871;28;20169;-86
2023/04/22 01:35:56;;;;;;;5.17;4.40;;;11.30;99.90;;;;;;5093969;28;20180;-86
2023/04/22 01:38:22;;;;;;;4.67;4.20;;;11.30;1.00;;;;;;5093700;28;20185;-86
2023/04/22 01:40:48;;;;;;;4.70;4.20;;;11.20;59.70;;;;;;5074557;28;20201;-86
2023/04/22 01:43:14;;;;;;;4.80;4.30;;;11.10;1.00;;;;;;5075619;28;20172;-86
2023/04/22 01:45:39;;;;;;;5.47;4.70;;;11.00;99.90;;;;;;5075874;28;20310;-85
2023/04/22 01:48:08;;;;;;;5.10;4.60;;;11.00;1.00;;;;;;5093584;28;20247;-86
2023/04/22 01:50:34;;;;;;;6.10;4.50;;;11.00;1.00;;;;;;5075123;28;20200;-85
2023/04/22 01:53:00;;;;;;;5.00;4.50;;;10.90;99.90;;;;;;5075332;28;20184;-85
2023/04/22 01:55:25;;;;;;;5.53;4.97;;;10.90;99.90;;;;;;5075658;28;20182;-86
2023/04/22 01:57:51;;;;;;;5.37;4.77;;;10.90;99.90;;;;;;5093567;28;20196;-86
2023/04/22 02:00:17;;;;;;;5.50;4.90;;;10.80;1.00;;;;;;5093297;28;20563;-86
2023/04/22 02:02:43;;;;;;;5.30;4.70;;;10.90;99.90;;;;;;5075192;28;20187;-85
2023/04/22 02:05:08;;;;;;;6.00;4.80;;;10.80;1.00;;;;;;5075169;28;20176;-86
2023/04/22 02:07:35;;;;;;;6.30;4.67;;;10.70;1.00;;;;;;5075313;28;20663;-85
2023/04/22 02:10:01;;;;;;;4.97;4.47;;;10.80;99.90;;;;;;5093203;28;20283;-85
2023/04/22 02:12:27;;;;;;;5.47;4.53;;;10.80;1.00;;;;;;5075307;28;20200;-86
2023/04/22 02:14:52;;;;;;;5.13;4.63;;;10.80;99.90;;;;;;5075118;28;20614;-86
2023/04/22 02:17:18;;;;;;;5.77;4.30;;;10.90;99.90;;;;;;5093157;28;20168;-86
2023/04/22 02:19:44;;;;;;;4.83;4.17;;;10.80;99.90;;;;;;5092839;28;20199;-85
2023/04/22 02:22:09;;;;;;;5.17;4.47;;;10.80;1.00;;;;;;5092942;28;20196;-86
2023/04/22 02:24:35;;;;;;;4.80;3.80;;;10.80;1.00;;;;;;5093195;28;20590;-85
2023/04/22 02:27:00;;;;;;;5.70;4.07;;;10.90;1.00;;;;;;5074695;28;20172;-86
2023/04/22 02:29:26;;;;;;;5.07;4.17;;;10.90;1.00;;;;;;5074566;28;20193;-86
2023/04/22 02:31:52;;;;;;;5.13;4.30;;;10.90;99.90;;;;;;5092765;28;20226;-85
2023/04/22 02:34:18;;;;;;;4.50;4.10;;;10.90;1.00;;;;;;5092801;28;20176;-85
2023/04/22 02:36:43;;;;;;;5.00;3.93;;;10.90;1.00;;;;;;5074562;28;20225;-86
2023/04/22 02:39:09;;;;;;;4.10;3.70;;;10.90;1.00;;;;;;5092891;28;20244;-86
2023/04/22 02:41:34;;;;;;;4.63;3.80;;;10.90;1.00;;;;;;5074502;28;20643;-86
2023/04/22 02:44:00;;;;;;;4.67;3.87;;;11.00;1.00;;;;;;5074466;28;20210;-85
2023/04/22 02:46:25;;;;;;;4.30;3.80;;;11.00;1.00;;;;;;5074648;28;20160;-85
2023/04/22 02:48:51;;;;;;;4.30;3.90;;;11.00;1.00;;;;;;5074236;28;20290;-86
2023/04/22 02:51:17;;;;;;;5.13;3.77;;;10.90;1.00;;;;;;5073979;28;20201;-86
2023/04/22 02:53:42;;;;;;;4.70;3.60;;;10.90;1.00;;;;;;5074572;28;20175;-86
2023/04/22 02:56:08;;;;;;;4.37;3.97;;;10.90;1.00;;;;;;5074548;28;20172;-86
2023/04/22 02:58:34;;;;;;;4.87;3.90;;;10.90;1.00;;;;;;5092248;28;20196;-86
2023/04/22 03:00:59;;;;;;;4.50;3.80;;;11.00;1.00;;;;;;5074123;28;20178;-86
2023/04/22 03:03:25;;;;;;;4.90;4.00;;;10.90;1.00;;;;;;5092319;28;20574;-85
2023/04/22 03:05:51;;;;;;;4.30;3.87;;;11.00;1.00;;;;;;5091957;28;20213;-86
2023/04/22 03:08:18;;;;;;;6.67;4.30;;;10.90;1.00;;;;;;5092298;28;20255;-86
2023/04/22 03:10:43;;;;;;;4.37;3.97;;;10.90;1.00;;;;;;5092024;28;20204;-86
2023/04/22 03:13:09;;;;;;;5.30;4.80;;;10.90;99.90;;;;;;5074311;28;20226;-85
2023/04/22 03:15:34;;;;;;;5.27;4.13;;;10.80;99.90;;;;;;5092194;28;20244;-86
2023/04/22 03:18:00;;;;;;;5.00;4.40;;;10.70;1.00;;;;;;5074148;28;20195;-86
2023/04/22 03:20:25;;;;;;;6.90;4.60;;;10.60;1.00;;;;;;5091821;28;20187;-85
2023/04/22 03:22:51;;;;;;;5.30;4.77;;;10.60;1.00;;;;;;5092283;28;20598;-86
2023/04/22 03:25:16;;;;;;;5.10;4.60;;;10.50;1.00;;;;;;5091969;28;20177;-86
2023/04/22 03:27:42;;;;;;;6.37;4.60;;;10.50;1.00;;;;;;5092049;28;20237;-86
2023/04/22 03:30:08;;;;;;;4.93;4.43;;;10.50;1.00;;;;;;5091780;28;20200;-86
2023/04/22 03:32:34;;;;;;;6.50;4.63;;;10.50;1.00;;;;;;5073958;28;20169;-85
2023/04/22 03:35:00;;;;;;;5.00;4.50;;;10.50;1.00;;;;;;5073782;28;20179;-84
2023/04/22 03:37:25;;;;;;;5.47;4.50;;;10.50;1.00;;;;;;5074033;28;20190;-85
2023/04/22 03:39:51;;;;;;;5.10;4.60;;;10.50;1.00;;;;;;5091677;28;20176;-85
2023/04/22 03:42:17;;;;;;;6.33;4.60;;;10.50;1.00;;;;;;5092034;28;20172;-85
2023/04/22 03:44:42;;;;;;;5.03;4.50;;;10.40;1.00;;;;;;5073757;28;20237;-86
2023/04/22 03:47:08;;;;;;;5.97;4.33;;;10.50;1.00;;;;;;5073928;28;20176;-85
2023/04/22 03:49:33;;;;;;;5.13;4.63;;;10.50;1.00;;;;;;5073788;28;20243;-86
2023/04/22 03:52:00;;;;;;;4.93;4.50;;;10.50;1.00;;;;;;5091860;28;20179;-86
2023/04/22 03:54:26;;;;;;;5.67;4.30;;;10.50;1.00;;;;;;5091929;28;20640;-86
2023/04/22 03:56:51;;;;;;;5.57;4.47;;;10.50;1.00;;;;;;5073463;28;20180;-84
2023/04/22 03:59:17;;;;;;;4.67;4.10;;;10.50;1.00;;;;;;5070768;28;20620;-85
2023/04/22 04:01:45;;;;;;;5.87;4.57;;;10.50;1.00;;;;;;5073784;28;20175;-85
2023/04/22 04:04:10;;;;;;;7.20;4.73;;;10.50;1.00;;;;;;5077160;28;20627;-85
2023/04/22 04:06:36;;;;;;;5.20;4.53;;;10.50;1.00;;;;;;5095806;28;20229;-85
2023/04/22 04:09:02;;;;;;;7.53;4.70;;;10.50;99.90;;;;;;5078005;28;20204;-84
2023/04/22 04:11:28;;;;;;;5.20;4.63;;;10.50;99.90;;;;;;5077694;28;20176;-85
2023/04/22 04:13:54;;;;;;;7.00;5.13;;;10.50;1.00;;;;;;5077702;28;20183;-85
2023/04/22 04:16:19;;;;;;;5.80;4.63;;;10.40;1.00;;;;;;5095880;28;20204;-84
2023/04/22 04:18:45;;;;;;;7.50;5.10;;;10.40;1.00;;;;;;5095605;28;20204;-85
2023/04/22 04:21:10;;;;;;;5.50;4.90;;;10.40;1.00;;;;;;5077466;28;20224;-85
2023/04/22 04:23:36;;;;;;;6.07;4.87;;;10.40;1.00;;;;;;5077889;28;20631;-85
2023/04/22 04:26:04;;;;;;;5.40;4.90;;;10.30;1.00;;;;;;5095761;28;20225;-85
2023/04/22 04:28:31;;;;;;;6.47;5.50;;;10.40;1.00;;;;;;5078087;28;20204;-85
2023/04/22 04:30:57;;;;;;;9.90;6.93;;;10.40;1.00;;;;;;5095376;28;20193;-85
2023/04/22 04:33:23;;;;;;;6.90;5.40;;;10.50;99.90;;;;;;5077815;28;20253;-84
2023/04/22 04:35:50;;;;;;;6.90;5.80;;;10.50;99.90;;;;;;5095720;28;20205;-85
2023/04/22 04:38:16;;;;;;;6.03;5.00;;;10.50;99.90;;;;;;5095716;28;20203;-82
2023/04/22 04:40:42;;;;;;;6.33;4.83;;;10.40;1.00;;;;;;5095204;28;20294;-84
2023/04/22 04:43:08;;;;;;;6.47;4.90;;;10.50;49.50;;;;;;5091244;28;20189;-85
2023/04/22 04:45:35;;;;;;;5.87;4.37;;;10.60;1.00;;;;;;5057371;28;20195;-85
2023/04/22 04:48:01;;;;;;;6.07;4.80;;;10.70;99.90;;;;;;5110941;23;20209;-82
2023/04/22 04:50:27;;;;;;;4.37;3.80;;;10.70;99.90;;;;;;5115028;28;20749;-84
2023/04/22 04:52:53;;;;;;;4.60;4.20;;;11.00;99.90;;;;;;5115986;28;20263;-84
2023/04/22 04:55:19;;;;;;;4.67;4.03;;;11.20;99.90;;;;;;5116353;28;20650;-84
2023/04/22 04:57:45;;;;;;;6.77;4.10;;;11.40;1.00;;;;;;5115940;28;20176;-84
2023/04/22 05:00:12;;;;;;;4.60;3.87;;;11.50;98.90;;;;;;5117690;28;20199;-81
2023/04/22 05:02:38;;;;;;;5.57;3.73;;;11.60;99.90;;;;;;5116822;28;20648;-83
2023/04/22 05:05:04;;;;;;;5.53;3.87;;;11.80;25.10;;;;;;5114849;28;20172;-83
2023/04/22 05:07:30;;;;;;;4.20;3.80;;;12.00;99.90;;;;;;5118291;28;20183;-84
2023/04/22 05:09:55;;;;;;;5.53;3.57;;;12.00;1.00;;;;;;5117725;28;20199;-84
2023/04/22 05:12:21;;;;;;;5.37;3.90;;;12.10;83.60;;;;;;5116415;28;20167;-85
2023/04/22 05:14:47;;;;;;;4.00;3.60;;;12.20;94.50;;;;;;5118184;28;20626;-84
2023/04/22 05:17:13;;;;;;;4.33;3.70;;;12.20;99.90;;;;;;5117060;28;20195;-83
2023/04/22 05:19:39;;;;;;;4.43;3.30;;;12.30;1.00;;;;;;5117068;28;20207;-83
2023/04/22 05:22:06;;;;;;;4.83;3.30;;;12.30;99.90;;;;;;5117619;28;20213;-82
2023/04/22 05:24:32;;;;;;;4.47;3.83;;;12.40;99.90;;;;;;5114567;28;20648;-82
2023/04/22 05:26:58;;;;;;;5.53;3.53;;;12.50;1.00;;;;;;5115133;28;20260;-83
2023/04/22 05:29:23;;;;;;;6.80;4.27;;;12.50;99.90;;;;;;5116434;28;20313;-81
2023/04/22 05:31:49;;;;;;;5.40;4.00;;;12.50;99.90;;;;;;5114943;28;20182;-82
2023/04/22 05:34:15;;;;;;;5.80;3.87;;;12.50;1.00;;;;;;5116220;28;20182;-83
2023/04/22 05:36:40;;;;;;;4.80;4.10;;;12.50;99.90;;;;;;5117430;28;20195;-84
2023/04/22 05:39:06;;;;;;;5.50;3.87;;;12.50;99.90;;;;;;5117527;28;20192;-87
2023/04/22 05:41:31;;;;;;;4.73;3.67;;;12.60;1.00;;;;;;5117446;28;20167;-83
2023/04/22 05:43:57;;;;;;;3.93;3.53;;;12.70;1.00;;;;;;5118100;27;20179;-83
2023/04/22 05:46:23;;;;;;;5.10;3.77;;;12.80;1.00;;;;;;5118296;28;20172;-83
2023/04/22 05:48:48;;;;;;;4.40;3.83;;;12.90;1.00;;;;;;5119374;28;20211;-85
2023/04/22 05:51:14;;;;;;;4.67;3.60;;;12.90;1.00;;;;;;5118102;28;20226;-83
2023/04/22 05:53:40;;;;;;;4.00;3.60;;;13.00;1.00;;;;;;5116163;27;20646;-83
2023/04/22 05:56:05;;;;;;;4.97;4.03;;;13.10;1.00;;;;;;5115388;28;20183;-83
2023/04/22 05:58:31;;;;;;;4.40;3.60;;;13.20;1.00;;;;;;5114470;28;20215;-84
2023/04/22 06:00:56;;;;;;;5.40;4.03;;;13.20;1.00;;;;;;5116661;28;20175;-83
2023/04/22 06:03:22;;;;;;;5.30;3.77;;;13.30;1.00;;;;;;5115191;28;20183;-83
2023/04/22 06:05:47;;;;;;;5.03;3.67;;;13.40;1.00;;;;;;5116773;28;20229;-83
2023/04/22 06:08:13;;;;;;;4.30;3.47;;;13.50;99.90;;;;;;5114862;28;20285;-83
2023/04/22 06:10:39;;;;;;;4.07;3.60;;;13.60;1.00;;;;;;5114360;28;20232;-83
2023/04/22 06:13:05;;;;;;;4.57;3.60;;;13.60;99.90;;;;;;5111927;28;20262;-83
2023/04/22 06:15:30;;;;;;;5.47;3.60;;;13.70;1.00;;;;;;5113272;28;20664;-82
2023/04/22 06:17:56;;;;;;;5.40;3.60;;;13.70;1.00;;;;;;5113592;28;20672;-85
2023/04/22 06:20:21;;;;;;;6.03;3.70;;;13.80;1.00;;;;;;5115102;28;20177;-86
2023/04/22 06:22:47;;;;;;;5.43;3.40;;;13.80;1.00;;;;;;5114455;28;20267;-84
2023/04/22 06:25:12;;;;;;;4.77;3.97;;;13.80;1.00;;;;;;5115319;28;20176;-84
2023/04/22 06:27:38;;;;;;;4.10;3.70;;;13.80;1.00;;;;;;5116869;28;20198;-83
2023/04/22 06:30:04;;;;;;;7.30;3.93;;;13.80;1.00;;;;;;5117286;28;20195;-84
2023/04/22 06:32:30;;;;;;;5.77;3.50;;;13.80;1.00;;;;;;5117720;28;20167;-84
2023/04/22 06:34:56;;;;;;;4.10;3.40;;;13.90;99.90;;;;;;5113885;28;20232;-83
2023/04/22 06:37:21;;;;;;;4.73;3.63;;;13.90;1.00;;;;;;5113447;28;20163;-84
2023/04/22 06:39:47;;;;;;;3.90;3.50;;;13.90;1.00;;;;;;5113752;28;20556;-83
2023/04/22 06:42:12;;;;;;;6.60;3.83;;;13.90;99.90;;;;;;5115420;28;20236;-84
2023/04/22 06:44:38;;;;;;;4.50;3.60;;;14.00;99.90;;;;;;5116539;28;20172;-83
2023/04/22 06:47:03;;;;;;;4.43;3.33;;;14.00;99.90;;;;;;5112647;28;20186;-85
2023/04/22 06:49:29;;;;;;;4.43;3.93;;;14.00;99.90;;;;;;5111111;28;20215;-85
2023/04/22 06:51:55;;;;;;;4.97;3.50;;;14.00;99.90;;;;;;5114146;28;20601;-86
2023/04/22 06:54:20;;;;;;;4.30;3.40;;;14.00;99.90;;;;;;5115313;28;20172;-84
2023/04/22 06:56:46;;;;;;;4.93;3.57;;;14.10;99.90;;;;;;5114663;28;20168;-84
2023/04/22 06:59:11;;;;;;;4.23;3.20;;;14.10;99.90;;;;;;5113404;28;20195;-84
2023/04/22 07:01:37;;;;;;;4.53;3.80;;;14.20;99.90;;;;;;5113157;28;20182;-84
2023/04/22 07:04:02;;;;;;;4.97;3.67;;;14.20;93.40;;;;;;5115176;28;20198;-84
2023/04/22 07:06:28;;;;;;;5.63;3.70;;;14.20;99.90;;;;;;5113382;28;20266;-84
2023/04/22 07:08:54;;;;;;;3.90;3.23;;;14.30;99.90;;;;;;5114731;28;20231;-84
2023/04/22 07:11:20;;;;;;;6.07;3.90;;;14.40;99.90;;;;;;5114737;28;20195;-84
2023/04/22 07:13:45;;;;;;;5.87;3.47;;;14.40;99.90;;;;;;5115124;28;20179;-84
2023/04/22 07:16:11;;;;;;;4.63;3.47;;;14.40;99.90;;;;;;5114977;28;20163;-84
2023/04/22 07:18:38;;;;;;;5.20;3.47;;;14.50;1.00;;;;;;5113601;28;20199;-84
2023/04/22 07:21:04;;;;;;;4.97;3.50;;;14.50;31.50;;;;;;5113995;28;20270;-86
2023/04/22 07:23:30;;;;;;;5.37;3.80;;;14.60;99.90;;;;;;5114629;28;20199;-85
2023/04/22 07:25:56;;;;;;;5.40;3.57;;;14.60;99.90;;;;;;5114942;28;20176;-84
2023/04/22 07:28:21;;;;;;;6.07;3.47;;;14.70;99.90;;;;;;5113602;28;20240;-84
2023/04/22 07:30:47;;;;;;;4.70;3.40;;;14.80;99.90;;;;;;5113451;28;20203;-84
2023/04/22 07:33:13;;;;;;;4.13;3.60;;;14.90;1.00;;;;;;5114171;28;20221;-84
2023/04/22 07:35:39;;;;;;;4.87;3.37;;;15.00;31.90;;;;;;5113774;28;20175;-86
2023/04/22 07:38:04;;;;;;;6.63;3.50;;;15.10;99.90;;;;;;5114970;28;20175;-84
2023/04/22 07:40:30;;;;;;;6.60;3.10;;;15.30;1.00;;;;;;5117813;28;20195;-84
2023/04/22 07:42:56;;;;;;;5.77;3.63;;;15.40;1.00;;;;;;5118508;28;20175;-85
2023/04/22 07:45:21;;;;;;;3.90;3.07;;;15.60;1.00;;;;;;5118262;28;20224;-84
2023/04/22 07:47:47;;;;;;;4.40;3.37;;;15.70;1.00;;;;;;5118436;28;20260;-84
2023/04/22 07:50:12;;;;;;;4.40;3.10;;;15.90;1.00;;;;;;5118387;28;20214;-85
2023/04/22 07:52:38;;;;;;;3.40;3.10;;;16.00;1.00;;;;;;5119402;28;20254;-84
2023/04/22 07:55:04;;;;;;;4.13;3.50;;;16.20;1.00;;;;;;5118515;28;20543;-84
2023/04/22 07:57:31;;;;;;;4.63;3.07;;;16.20;99.90;;;;;;5118179;28;20172;-85
2023/04/22 07:59:57;;;;;;;5.13;3.03;;;16.30;1.00;;;;;;5120099;28;20215;-84
2023/04/22 08:02:22;;;;;;;5.13;3.20;;;16.20;99.90;;;;;;5118028;28;20171;-85
2023/04/22 08:04:48;;;;;;;3.90;2.80;;;16.30;99.90;;;;;;5118440;28;20179;-84
2023/04/22 08:07:14;;;;;;;4.03;3.00;;;16.40;99.90;;;;;;5118391;28;20183;-84
2023/04/22 08:09:39;;;;;;;6.73;2.73;;;16.40;99.90;;;;;;5119336;28;20235;-84
2023/04/22 08:12:05;;;;;;;3.97;2.73;;;16.50;99.90;;;;;;5118965;28;20179;-85
2023/04/22 08:14:31;;;;;;;3.57;2.93;;;16.60;1.00;;;;;;5121053;28;20176;-83
2023/04/22 08:16:56;;;;;;;3.00;2.47;;;16.60;99.90;;;;;;5118929;28;20176;-85
2023/04/22 08:19:22;;;;;;;4.60;2.90;;;16.60;99.90;;;;;;5118602;28;20199;-84
2023/04/22 08:21:47;;;;;;;4.30;2.90;;;16.60;99.90;;;;;;5118914;28;20597;-84
2023/04/22 08:24:13;;;;;;;4.47;2.70;;;16.70;99.90;;;;;;5119258;28;20225;-85
2023/04/22 08:26:39;;;;;;;5.73;2.90;;;16.80;99.90;;;;;;5120939;28;20175;-85
2023/04/22 08:29:05;;;;;;;4.00;2.57;;;17.00;99.90;;;;;;5120675;28;20188;-85
2023/04/22 08:31:32;;;;;;;3.60;2.73;;;17.20;99.90;;;;;;5120974;28;20203;-84
2023/04/22 08:33:57;;;;;;;3.30;2.87;;;17.30;99.90;;;;;;5118938;28;20176;-84
2023/04/22 08:36:25;;;;;;;4.47;2.60;;;17.40;1.00;;;;;;5120968;28;20171;-85
2023/04/22 08:38:51;;;;;;;3.00;2.60;;;17.50;27.10;;;;;;5121303;28;20191;-84
2023/04/22 08:41:18;;;;;;;3.80;2.53;;;17.70;14.00;;;;;;5120329;28;20244;-85
2023/04/22 08:43:44;;;;;;;4.73;2.40;;;17.80;1.00;;;;;;5122054;28;20172;-85
2023/04/22 08:46:11;;;;;;;2.67;2.47;;;17.90;1.00;;;;;;5118358;28;20195;-84
2023/04/22 08:48:36;;;;;;;3.67;2.27;;;18.10;1.00;;;;;;5119227;28;20212;-85
2023/04/22 08:51:03;;;;;;;4.03;2.30;;;18.10;1.00;;;;;;5118466;28;20203;-85
2023/04/22 08:53:29;;;;;;;4.43;2.60;;;18.00;1.00;;;;;;5118009;28;20170;-84
2023/04/22 08:55:56;;;;;;;2.40;2.20;;;18.10;1.00;;;;;;5118296;28;20170;-84
2023/04/22 08:58:22;;;;;;;5.47;2.60;;;18.20;1.00;;;;;;5116227;28;20275;-84
2023/04/22 09:00:48;;;;;;;2.90;2.60;;;18.30;1.00;;;;;;5118078;28;20178;-86
2023/04/22 09:03:15;;;;;;;3.73;2.40;;;18.40;1.00;;;;;;5118149;28;20171;-84
2023/04/22 09:05:42;;;;;;;3.50;2.50;;;18.40;1.00;;;;;;5118279;28;20197;-84
2023/04/22 09:08:10;;;;;;;3.27;2.60;;;18.50;1.00;;;;;;5116117;28;20176;-84
2023/04/22 09:10:37;;;;;;;5.67;2.73;;;18.70;1.00;;;;;;5115450;28;20252;-84
2023/04/22 09:13:04;;;;;;;3.73;2.60;;;18.80;1.00;;;;;;5117894;28;20643;-84
2023/04/22 09:15:30;;;;;;;3.77;2.80;;;18.80;1.00;;;;;;5116634;28;20544;-85
2023/04/22 09:17:57;;;;;;;3.03;2.50;;;18.80;1.00;;;;;;5116100;28;20168;-84
2023/04/22 09:20:28;;;;;;;4.77;2.63;;;18.80;1.00;;;;;;5114997;28;20211;-84
2023/04/22 09:22:55;;;;;;;3.37;2.40;;;19.00;1.00;;;;;;5118165;28;20201;-85
2023/04/22 09:25:27;;;;;;;3.10;2.80;;;19.10;1.00;;;;;;5116232;28;20180;-85
2023/04/22 09:27:55;;;;;;;3.70;2.50;;;19.30;1.00;;;;;;5115855;28;20203;-84
2023/04/22 09:30:37;;;;;;;3.05;2.10;;;19.50;1.00;;;;;;5116943;28;20687;-85
2023/04/22 09:33:05;;;;;;;3.08;2.30;;;19.60;1.00;;;;;;5117692;28;20167;-84
2023/04/22 09:35:38;;;;;;;3.07;2.20;;;19.50;1.00;;;;;;5115248;28;20220;-84
2023/04/22 09:38:07;;;;;;;2.65;2.45;;;19.50;1.00;;;;;;5115453;28;20164;-84
2023/04/22 09:40:34;;;;;;;3.70;2.40;;;19.40;1.00;;;;;;5114996;28;20258;-85
2023/04/22 09:43:02;;;;;;;2.97;2.30;;;19.10;1.00;;;;;;5115860;28;20184;-84
2023/04/22 09:45:35;;;;;;;3.30;2.20;;;19.10;1.00;;;;;;5116734;28;20200;-84
2023/04/22 09:48:08;;;;;;;2.75;2.17;;;19.20;1.00;;;;;;5116299;28;20172;-84
2023/04/22 09:50:36;;;;;;;3.00;2.20;;;19.30;1.00;;;;;;5116263;28;20282;-84
2023/04/22 09:53:07;;;;;;;4.57;2.15;;;19.30;99.90;;;;;;5116153;28;20175;-84
2023/04/22 09:55:36;;;;;;;2.38;2.17;;;19.30;99.90;;;;;;5116141;28;20650;-85
2023/04/22 09:58:11;;;;;;;3.63;2.20;;;19.60;1.00;;;;;;5114456;28;20182;-84
2023/04/22 10:00:44;;;;;;;3.70;2.00;;;19.60;99.90;;;;;;5115529;28;20209;-84
2023/04/22 10:03:09;;;;;;;4.88;2.60;;;19.90;99.90;;;;;;5114461;28;20175;-84
2023/04/22 10:05:36;;;;;;;2.60;2.40;;;19.90;99.90;;;;;;5114890;28;20180;-84
2023/04/22 10:08:07;;;;;;;2.80;2.30;;;20.00;1.00;;;;;;5114692;28;20202;-85
2023/04/22 10:10:33;;;;;;;3.63;2.50;;;20.40;1.00;;;;;;5116200;28;20275;-84
2023/04/22 10:12:59;;;;;;;4.00;3.22;;;20.80;1.00;;;;;;5115203;28;20202;-84
2023/04/22 10:15:30;;;;;;;5.68;3.00;;;21.10;1.00;;;;;;5115397;28;20174;-86
2023/04/22 10:17:56;;;;;;;4.32;2.92;;;21.30;1.00;;;;;;5116637;27;20168;-85
2023/04/22 10:20:23;;;;;;;5.60;2.95;;;21.20;1.00;;;;;;5114834;28;20171;-84
2023/04/22 10:22:52;;;;;;;5.32;3.10;;;21.20;99.90;;;;;;5117110;28;20206;-85
2023/04/22 10:25:22;;;;;;;4.28;2.88;;;21.40;99.90;;;;;;5117314;28;20194;-85
2023/04/22 10:28:05;;;;;;;3.42;3.05;;;21.40;99.90;;;;;;5115592;28;20267;-85
2023/04/22 10:30:34;;;;;;;3.47;2.83;;;21.10;99.90;;;;;;5115558;28;20239;-85
2023/04/22 10:33:27;;;;;;;3.00;2.70;;;20.90;1.00;;;;;;5115217;28;20199;-84
2023/04/22 10:36:14;;;;;;;2.78;2.50;;;20.90;99.90;;;;;;5115509;28;20170;-84
2023/04/22 10:38:41;;;;;;;3.15;2.70;;;20.70;99.90;;;;;;5116726;28;20183;-84
2023/04/22 10:41:14;;;;;;;3.38;2.63;;;20.70;1.00;;;;;;5117454;28;20168;-84
2023/04/22 10:43:57;;;;;;;4.97;3.17;;;20.80;1.00;;;;;;5117219;28;20163;-84
2023/04/22 10:46:31;;;;;;;3.15;2.70;;;20.80;1.00;;;;;;5117367;28;20266;-86
2023/04/22 10:48:58;;;;;;;4.70;2.90;;;21.00;1.00;;;;;;5117214;28;20700;-80
2023/04/22 10:51:59;;;;;;;4.05;2.55;;;21.20;1.00;;;;;;5112769;28;20199;-80
2023/04/22 10:54:25;;;;;;;3.65;2.63;;;21.40;99.90;;;;;;5113162;28;20167;-81
2023/04/22 10:57:07;;;;;;;2.85;2.25;;;21.50;99.90;;;;;;5113033;28;20174;-80
2023/04/22 10:59:54;;;;;;;3.65;2.10;;;21.50;99.90;;;;;;5112324;28;20191;-80
2023/04/22 11:02:21;;;;;;;3.13;2.28;;;21.60;99.90;;;;;;5114246;28;20557;-81
2023/04/22 11:04:47;;;;;;;4.50;2.38;;;21.90;99.90;;;;;;5113844;28;20168;-80
2023/04/22 11:07:25;;;;;;;3.38;2.40;;;21.60;99.90;;;;;;5112898;28;20218;-81
2023/04/22 11:10:06;;;;;;;3.35;2.30;;;21.60;99.90;;;;;;5112938;28;20195;-80
2023/04/22 11:12:38;;;;;;;2.80;2.50;;;21.80;99.90;;;;;;5113102;28;20254;-80
2023/04/22 11:15:09;;;;;;;2.63;2.38;;;22.10;99.90;;;;;;5114081;28;20164;-80
2023/04/22 11:17:36;;;;;;;4.25;2.38;;;22.00;99.90;;;;;;5114133;28;20168;-81
2023/04/22 11:20:03;;;;;;;3.70;2.20;;;22.00;99.90;;;;;;5112482;28;20202;-80
2023/04/22 11:22:37;;;;;;;5.00;2.10;;;21.70;99.90;;;;;;5114037;28;20206;-81
2023/04/22 11:25:05;;;;;;;3.72;1.90;;;21.60;99.90;;;;;;5113029;28;20175;-81
2023/04/22 11:27:31;;;;;;;3.58;1.95;;;21.30;99.90;;;;;;5113233;28;20171;-81
2023/04/22 11:30:19;;;;;;;3.78;2.47;;;21.10;99.90;;;;;;5114577;28;20215;-81
2023/04/22 11:32:56;;;;;;;2.22;2.00;;;21.10;99.90;;;;;;5112804;28;20634;-81
2023/04/22 11:35:31;;;;;;;2.63;2.08;;;21.20;99.90;;;;;;5114419;28;20175;-81
2023/04/22 11:38:07;;;;;;;3.08;2.30;;;21.30;99.90;;;;;;5113665;28;20168;-81
2023/04/22 11:40:35;;;;;;;3.88;2.38;;;21.20;99.90;;;;;;5115921;28;20179;-82
2023/04/22 11:43:03;;;;;;;2.63;2.00;;;21.20;99.90;;;;;;5114105;28;20182;-81
2023/04/22 11:45:31;;;;;;;2.22;2.03;;;21.00;99.90;;;;;;5113546;28;20255;-81
2023/04/22 11:47:57;;;;;;;2.17;1.98;;;20.80;99.90;;;;;;5112201;28;20183;-81
2023/04/22 11:50:29;;;;;;;3.10;1.80;;;20.80;99.90;;;;;;5113032;28;20206;-81
2023/04/22 11:52:57;;;;;;;4.75;2.25;;;21.00;99.90;;;;;;5112073;28;20168;-81
2023/04/22 11:55:32;;;;;;;2.17;1.80;;;21.20;99.90;;;;;;5113995;28;20172;-80
2023/04/22 11:57:59;;;;;;;2.63;1.67;;;21.20;99.90;;;;;;5112139;28;20195;-81
2023/04/22 12:00:39;;;;;;;3.67;1.60;;;20.80;99.90;;;;;;5111623;28;20237;-79
2023/04/22 12:03:07;;;;;;;3.30;1.83;;;20.70;99.90;;;;;;5113820;28;20171;-80
2023/04/22 12:05:43;;;;;;;2.25;1.80;;;20.40;99.90;;;;;;5113377;28;20666;-80
2023/04/22 12:08:13;;;;;;;2.42;1.83;;;20.30;99.90;;;;;;5113492;28;20191;-80
2023/04/22 12:10:53;;;;;;;2.60;1.80;;;20.20;99.90;;;;;;5111196;28;20285;-80
2023/04/22 12:13:20;;;;;;;2.65;2.13;;;20.10;99.90;;;;;;5111893;28;20541;-80
2023/04/22 12:15:46;;;;;;;2.38;1.70;;;20.10;99.90;;;;;;5113591;28;20172;-80
2023/04/22 12:18:12;;;;;;;1.63;1.52;;;20.20;99.90;;;;;;5111770;28;20188;-80
2023/04/22 12:20:41;;;;;;;1.60;1.50;;;20.30;99.90;;;;;;5111817;28;20208;-80
2023/04/22 12:23:14;;;;;;;2.90;1.40;;;20.30;99.90;;;;;;5111707;28;20172;-81
2023/04/22 12:25:40;;;;;;;2.00;1.80;;;20.30;99.90;;;;;;5117000;28;20179;-80
2023/04/22 12:28:06;;;;;;;2.25;1.50;;;20.40;99.90;;;;;;5115593;28;20172;-80
2023/04/22 12:30:32;;;;;;;3.72;1.92;;;20.40;99.90;;;;;;5116423;28;20204;-80
2023/04/22 12:32:57;;;;;;;3.70;1.83;;;20.40;99.90;;;;;;5116416;28;20174;-80
2023/04/22 12:35:23;;;;;;;1.60;1.50;;;20.50;99.90;;;;;;5115390;28;20620;-82
2023/04/22 12:37:48;;;;;;;2.88;1.80;;;20.50;99.90;;;;;;5114975;28;20229;-80
2023/04/22 12:40:14;;;;;;;2.53;1.77;;;20.70;99.90;;;;;;5116453;28;20176;-80
2023/04/22 12:42:40;;;;;;;1.98;1.77;;;20.70;99.90;;;;;;5115238;28;20168;-80
2023/04/22 12:45:06;;;;;;;1.73;1.63;;;20.70;99.90;;;;;;5116428;28;20187;-80
2023/04/22 12:47:32;;;;;;;1.90;1.80;;;20.90;99.90;;;;;;5115052;28;20168;-80
2023/04/22 12:50:00;;;;;;;3.70;1.58;;;21.00;99.90;;;;;;5116230;28;20208;-80
2023/04/22 12:52:25;;;;;;;2.22;1.60;;;21.10;99.90;;;;;;5116185;28;20172;-80